createdAt,value
2023-04-12T00:00:21.986Z,76.95
2023-04-12T00:03:25.444Z,76.95
2023-04-12T00:06:32.549Z,77.42
2023-04-12T00:09:36.405Z,77.31
2023-04-12T00:12:42.056Z,77.38
2023-04-12T00:15:44.724Z,77.05
2023-04-12T00:18:47.537Z,76.92
2023-04-12T00:21:50.217Z,77.23
2023-04-12T00:24:55.188Z,77.49
2023-04-12T00:27:59.455Z,77.80
2023-04-12T00:31:02.138Z,78.35
2023-04-12T00:34:04.822Z,77.97
2023-04-12T00:37:07.506Z,77.62
2023-04-12T00:40:11.157Z,77.44
2023-04-12T00:43:18.816Z,77.13
2023-04-12T00:46:21.685Z,77.12
2023-04-12T00:49:24.381Z,76.72
2023-04-12T00:52:28.178Z,76.66
2023-04-12T00:55:31.614Z,76.76
2023-04-12T00:58:35.865Z,77.16
2023-04-12T01:01:41.422Z,77.61
2023-04-12T01:04:45.116Z,77.61
2023-04-12T01:07:56.658Z,77.73
2023-04-12T01:11:13.507Z,78.28
2023-04-12T01:14:23.863Z,78.45
2023-04-12T01:17:31.784Z,78.80
2023-04-12T01:20:39.297Z,78.88
2023-04-12T01:24:01.805Z,79.20
2023-04-12T01:27:06.719Z,79.11
2023-04-12T01:30:14.270Z,78.79
2023-04-12T01:33:18.748Z,79.01
2023-04-12T01:36:23.807Z,79.19
2023-04-12T01:39:27.457Z,79.67
2023-04-12T01:42:30.295Z,80.01
2023-04-12T01:45:34.812Z,80.04
2023-04-12T01:48:37.525Z,80.65
2023-04-12T01:51:52.221Z,81.11
2023-04-12T01:55:00.011Z,81.48
2023-04-12T01:58:04.336Z,81.64
2023-04-12T02:01:09.392Z,81.63
2023-04-12T02:04:13.295Z,81.63
2023-04-12T02:07:18.808Z,81.67
2023-04-12T02:10:29.318Z,81.96
2023-04-12T02:13:39.186Z,82.01
2023-04-12T02:16:44.760Z,82.09
2023-04-12T02:19:47.662Z,82.60
2023-04-12T02:22:52.104Z,83.06
2023-04-12T02:25:56.326Z,83.58
2023-04-12T02:28:59.121Z,84.18
2023-04-12T02:32:03.248Z,84.04
2023-04-12T02:35:08.516Z,84.26
2023-04-12T02:38:11.510Z,84.77
2023-04-12T02:41:18.768Z,84.47
2023-04-12T02:44:21.486Z,85.25
2023-04-12T02:47:28.545Z,85.51
2023-04-12T02:50:31.452Z,86.02
2023-04-12T02:53:34.152Z,86.29
2023-04-12T02:56:36.997Z,86.37
2023-04-12T02:59:40.505Z,86.74
2023-04-12T03:02:45.138Z,87.25
2023-04-12T03:05:48.096Z,87.75
2023-04-12T03:08:50.917Z,88.04
2023-04-12T03:11:54.102Z,88.25
2023-04-12T03:14:56.935Z,88.29
2023-04-12T03:18:01.065Z,88.58
2023-04-12T03:21:03.974Z,88.78
2023-04-12T03:24:07.065Z,88.96
2023-04-12T03:27:09.954Z,89.51
2023-04-12T03:30:13.381Z,89.34
2023-04-12T03:33:17.482Z,89.88
2023-04-12T03:36:21.245Z,89.84
2023-04-12T03:39:23.972Z,90.28
2023-04-12T03:42:33.130Z,89.92
2023-04-12T03:45:36.778Z,89.94
2023-04-12T03:48:41.134Z,89.87
2023-04-12T03:51:44.003Z,90.16
2023-04-12T03:54:46.771Z,90.23
2023-04-12T03:57:50.357Z,90.50
2023-04-12T04:00:56.358Z,90.23
2023-04-12T04:04:00.601Z,89.96
2023-04-12T04:07:04.050Z,89.72
2023-04-12T04:10:08.197Z,89.50
2023-04-12T04:13:11.096Z,89.64
2023-04-12T04:16:14.022Z,89.39
2023-04-12T04:19:18.100Z,89.55
2023-04-12T04:22:21.640Z,89.34
2023-04-12T04:25:29.957Z,88.92
2023-04-12T04:28:35.095Z,88.82
2023-04-12T04:31:38.049Z,88.47
2023-04-12T04:34:42.149Z,88.22
2023-04-12T04:37:44.908Z,88.13
2023-04-12T04:40:47.980Z,87.69
2023-04-12T04:43:51.429Z,87.60
2023-04-12T04:46:54.133Z,87.27
2023-04-12T04:50:00.914Z,87.18
2023-04-12T04:53:03.612Z,87.05
2023-04-12T04:56:07.028Z,87.09
2023-04-12T04:59:09.834Z,86.92
2023-04-12T05:02:12.634Z,87.09
2023-04-12T05:05:16.956Z,86.93
2023-04-12T05:08:19.651Z,86.56
2023-04-12T05:11:22.405Z,86.72
2023-04-12T05:14:31.011Z,86.69
2023-04-12T05:17:44.354Z,86.69
2023-04-12T05:20:48.970Z,86.77
2023-04-12T05:23:51.673Z,86.60
2023-04-12T05:26:54.376Z,86.64
2023-04-12T05:29:57.917Z,86.88
2023-04-12T05:33:01.262Z,87.43
2023-04-12T05:36:06.159Z,88.00
2023-04-12T05:39:08.986Z,88.63
2023-04-12T05:42:11.782Z,89.31
2023-04-12T05:45:14.497Z,90.00
2023-04-12T05:48:18.790Z,90.14
2023-04-12T05:51:33.987Z,90.03
2023-04-12T05:54:43.084Z,89.81
2023-04-12T05:57:47.553Z,89.77
2023-04-12T06:00:50.422Z,90.36
2023-04-12T06:03:53.546Z,91.44
2023-04-12T06:06:57.766Z,91.63
2023-04-12T06:10:00.577Z,91.53
2023-04-12T06:13:03.339Z,91.63
2023-04-12T06:16:06.920Z,91.66
2023-04-12T06:19:10.988Z,90.90
2023-04-12T06:22:15.189Z,90.79
2023-04-12T06:25:18.037Z,90.61
2023-04-12T06:28:20.800Z,90.94
2023-04-12T06:31:23.598Z,90.84
2023-04-12T06:34:26.625Z,90.28
2023-04-12T06:37:30.665Z,89.93
2023-04-12T06:40:33.508Z,89.52
2023-04-12T06:43:36.796Z,89.71
2023-04-12T06:46:39.593Z,89.84
2023-04-12T06:49:42.382Z,89.50
2023-04-12T06:52:48.369Z,89.16
2023-04-12T06:55:51.413Z,88.93
2023-04-12T06:58:54.081Z,88.56
2023-04-12T07:01:56.886Z,88.44
2023-04-12T07:04:59.585Z,88.57
2023-04-12T07:08:03.575Z,87.90
2023-04-12T07:11:20.028Z,87.38
2023-04-12T07:14:24.424Z,87.33
2023-04-12T07:17:27.987Z,87.44
2023-04-12T07:20:30.697Z,87.75
2023-04-12T07:23:34.703Z,87.91
2023-04-12T07:26:37.450Z,88.11
2023-04-12T07:29:40.288Z,88.06
2023-04-12T07:32:43.089Z,88.13
2023-04-12T07:35:45.809Z,88.35
2023-04-12T07:38:55.151Z,88.23
2023-04-12T07:41:58.504Z,88.21
2023-04-12T07:45:02.040Z,87.89
2023-04-12T07:48:05.729Z,88.04
2023-04-12T07:51:09.160Z,87.82
2023-04-12T07:54:13.324Z,87.47
2023-04-12T07:57:16.093Z,87.43
2023-04-12T08:00:19.628Z,87.29
2023-04-12T08:03:22.432Z,87.26
2023-04-12T08:06:30.027Z,87.43
2023-04-12T08:09:35.545Z,87.34
2023-04-12T08:12:38.249Z,86.86
2023-04-12T08:15:40.957Z,86.50
2023-04-12T08:18:43.682Z,86.26
2023-04-12T08:21:46.604Z,85.73
2023-04-12T08:24:51.002Z,84.96
2023-04-12T08:27:54.046Z,84.89
2023-04-12T08:30:56.975Z,84.56
2023-04-12T08:34:00.115Z,84.08
2023-04-12T08:37:03.179Z,83.77
2023-04-12T08:40:10.645Z,83.88
2023-04-12T08:43:14.581Z,84.43
2023-04-12T08:46:18.154Z,84.68
2023-04-12T08:49:23.068Z,84.63
2023-04-12T08:52:25.895Z,84.45
2023-04-12T08:55:30.008Z,84.73
2023-04-12T08:58:33.303Z,84.65
2023-04-12T09:01:36.962Z,84.13
2023-04-12T09:04:49.519Z,83.81
2023-04-12T09:07:52.496Z,83.83
2023-04-12T09:10:56.543Z,82.98
2023-04-12T09:13:59.863Z,82.50
2023-04-12T09:17:03.947Z,82.23
2023-04-12T09:20:24.963Z,82.35
2023-04-12T09:23:27.753Z,82.37
2023-04-12T09:26:31.953Z,82.57
2023-04-12T09:29:35.524Z,82.33
2023-04-12T09:32:38.427Z,82.33
2023-04-12T09:35:42.995Z,82.25
2023-04-12T09:39:00.515Z,82.30
2023-04-12T09:42:21.396Z,82.24
2023-04-12T09:45:37.349Z,81.86
2023-04-12T09:48:40.916Z,81.55
2023-04-12T09:51:43.758Z,81.68
2023-04-12T09:54:47.879Z,81.42
2023-04-12T09:57:53.982Z,80.96
2023-04-12T10:01:01.125Z,80.23
2023-04-12T10:04:04.973Z,79.28
2023-04-12T10:07:08.455Z,78.29
2023-04-12T10:10:12.968Z,77.45
2023-04-12T10:13:18.741Z,76.48
2023-04-12T10:16:23.108Z,75.47
2023-04-12T10:19:27.533Z,75.22
2023-04-12T10:22:30.388Z,75.52
2023-04-12T10:25:34.168Z,75.73
2023-04-12T10:28:38.476Z,75.73
2023-04-12T10:31:42.372Z,76.24
2023-04-12T10:34:45.333Z,76.27
2023-04-12T10:38:02.284Z,76.50
2023-04-12T10:41:11.541Z,76.30
2023-04-12T10:44:27.159Z,75.97
2023-04-12T10:48:01.500Z,75.96
2023-04-12T10:51:16.240Z,75.72
2023-04-12T10:54:35.504Z,76.76
2023-04-12T10:57:45.304Z,76.92
2023-04-12T11:01:17.405Z,77.09
2023-04-12T11:04:21.977Z,76.76
2023-04-12T11:07:39.485Z,76.82
2023-04-12T11:10:42.611Z,76.45
2023-04-12T11:13:45.572Z,76.53
2023-04-12T11:17:26.306Z,76.42
2023-04-12T11:20:29.172Z,76.46
2023-04-12T11:23:32.262Z,76.33
2023-04-12T11:26:37.807Z,76.78
2023-04-12T11:29:40.579Z,76.30
2023-04-12T11:32:46.660Z,76.06
2023-04-12T11:35:49.392Z,75.36
2023-04-12T11:38:52.846Z,75.45
2023-04-12T11:41:55.820Z,75.81
2023-04-12T11:45:04.859Z,75.79
2023-04-12T11:48:10.921Z,75.55
2023-04-12T11:51:20.805Z,76.16
2023-04-12T11:54:29.736Z,76.38
2023-04-12T11:57:32.425Z,76.82
2023-04-12T12:00:35.597Z,77.56
2023-04-12T12:03:40.814Z,77.56
2023-04-12T12:06:44.071Z,77.72
2023-04-12T12:09:47.537Z,77.19
2023-04-12T12:12:50.543Z,77.33
2023-04-12T12:15:53.962Z,76.64
2023-04-12T12:18:58.838Z,76.08
2023-04-12T12:22:11.029Z,76.04
2023-04-12T12:25:13.799Z,76.00
2023-04-12T12:28:18.031Z,75.67
2023-04-12T12:31:22.721Z,75.11
2023-04-12T12:34:26.814Z,74.81
2023-04-12T12:37:30.957Z,74.27
2023-04-12T12:40:33.710Z,74.02
2023-04-12T12:43:36.358Z,73.45
2023-04-12T12:49:46.240Z,72.35
2023-04-12T12:52:48.981Z,72.17
2023-04-12T12:55:51.669Z,72.02
2023-04-12T12:58:54.385Z,71.82
2023-04-12T13:01:57.239Z,71.38
2023-04-12T13:05:03.169Z,71.55
2023-04-12T13:08:06.184Z,71.83
2023-04-12T13:11:08.966Z,71.52
2023-04-12T13:14:11.709Z,70.75
2023-04-12T13:17:14.579Z,69.44
2023-04-12T13:20:18.792Z,68.52
2023-04-12T13:23:21.491Z,67.55
2023-04-12T13:26:26.005Z,67.23
2023-04-12T13:29:28.956Z,67.35
2023-04-12T13:32:31.869Z,67.06
2023-04-12T13:35:35.953Z,67.34
2023-04-12T13:38:38.636Z,67.94
2023-04-12T13:41:41.423Z,68.07
2023-04-12T13:44:44.802Z,69.15
2023-04-12T13:47:47.578Z,69.74
2023-04-12T13:50:53.629Z,69.82
2023-04-12T13:53:58.153Z,70.24
2023-04-12T13:57:00.873Z,70.52
2023-04-12T14:00:03.780Z,71.03
2023-04-12T14:03:07.931Z,70.38
2023-04-12T14:06:12.623Z,69.18
2023-04-12T14:09:25.930Z,68.24
2023-04-12T14:12:28.650Z,67.84
2023-04-12T14:15:31.421Z,68.74
2023-04-12T14:18:34.269Z,68.85
2023-04-12T14:21:38.367Z,68.85
2023-04-12T14:24:41.233Z,68.85
2023-04-12T14:27:45.109Z,68.59
2023-04-12T14:30:50.303Z,68.67
2023-04-12T14:33:53.725Z,69.04
2023-04-12T14:36:58.227Z,69.09
2023-04-12T14:40:02.123Z,68.90
2023-04-12T14:43:04.842Z,69.34
2023-04-12T14:46:07.836Z,69.96
2023-04-12T14:49:10.718Z,69.61
2023-04-12T14:52:14.788Z,69.87
2023-04-12T14:55:17.872Z,69.77
2023-04-12T14:58:20.711Z,70.06
2023-04-12T15:01:23.974Z,70.04
2023-04-12T15:04:27.101Z,69.98
2023-04-12T15:07:31.361Z,70.23
2023-04-12T15:10:34.217Z,69.90
2023-04-12T15:13:37.701Z,70.31
2023-04-12T15:16:42.481Z,71.01
2023-04-12T15:19:45.319Z,71.67
2023-04-12T15:22:49.465Z,72.02
2023-04-12T15:25:59.988Z,72.61
2023-04-12T15:29:03.844Z,72.15
2023-04-12T15:32:08.785Z,71.99
2023-04-12T15:38:22.926Z,72.27
2023-04-12T15:41:26.478Z,71.97
2023-04-12T15:44:31.966Z,71.85
2023-04-12T15:47:34.940Z,71.40
2023-04-12T15:50:37.891Z,70.53
2023-04-12T15:53:43.403Z,70.04
2023-04-12T15:56:46.471Z,69.20
2023-04-12T15:59:50.913Z,69.05
2023-04-12T16:02:57.554Z,69.35
2023-04-12T16:06:00.428Z,69.42
2023-04-12T16:09:05.677Z,69.57
2023-04-12T16:12:08.410Z,69.69
2023-04-12T16:15:12.218Z,70.03
2023-04-12T16:18:15.012Z,70.16
2023-04-12T16:21:20.111Z,69.90
2023-04-12T16:24:24.313Z,69.63
2023-04-12T16:27:29.453Z,68.89
2023-04-12T16:30:32.854Z,68.47
2023-04-12T16:33:35.705Z,68.09
2023-04-12T16:36:39.194Z,68.22
2023-04-12T16:39:44.333Z,67.83
2023-04-12T16:42:47.038Z,68.10
2023-04-12T16:45:49.674Z,68.56
2023-04-12T16:48:52.532Z,68.79
2023-04-12T16:51:55.520Z,68.96
2023-04-12T16:55:00.611Z,69.09
2023-04-12T16:58:03.821Z,69.33
2023-04-12T17:01:07.970Z,69.49
2023-04-12T17:04:12.057Z,70.17
2023-04-12T17:07:15.103Z,70.59
2023-04-12T17:10:20.868Z,71.12
2023-04-12T17:13:23.625Z,71.89
2023-04-12T17:16:26.439Z,71.89
2023-04-12T17:19:29.241Z,72.41
2023-04-12T17:22:32.114Z,73.05
2023-04-12T17:25:36.352Z,73.73
2023-04-12T17:28:39.681Z,73.69
2023-04-12T17:31:42.876Z,74.33
2023-04-12T17:34:45.621Z,74.79
2023-04-12T17:37:48.789Z,74.45
2023-04-12T17:40:52.828Z,74.86
2023-04-12T17:43:55.882Z,74.96
2023-04-12T17:46:58.806Z,74.82
2023-04-12T17:50:02.064Z,74.69
2023-04-12T17:53:06.250Z,75.22
2023-04-12T17:56:10.656Z,75.36
2023-04-12T17:59:13.610Z,75.54
2023-04-12T18:02:18.004Z,75.56
2023-04-12T18:05:20.836Z,76.50
2023-04-12T18:08:24.014Z,76.73
2023-04-12T18:11:28.621Z,77.45
2023-04-12T18:14:31.369Z,77.29
2023-04-12T18:17:34.201Z,77.97
2023-04-12T18:20:37.063Z,77.97
2023-04-12T18:23:40.026Z,78.45
2023-04-12T18:26:44.327Z,78.31
2023-04-12T18:29:47.016Z,78.73
2023-04-12T18:32:49.756Z,78.53
2023-04-12T18:35:53.035Z,78.88
2023-04-12T18:38:55.861Z,79.08
2023-04-12T18:41:59.877Z,79.05
2023-04-12T18:45:03.409Z,79.38
2023-04-12T18:48:06.430Z,79.55
2023-04-12T18:51:09.600Z,79.46
2023-04-12T18:54:15.120Z,79.75
2023-04-12T18:57:19.333Z,79.84
2023-04-12T19:00:22.468Z,80.44
2023-04-12T19:03:28.342Z,80.46
2023-04-12T19:06:31.365Z,80.55
2023-04-12T19:09:34.190Z,80.70
2023-04-12T19:12:38.242Z,80.85
2023-04-12T19:15:41.471Z,80.91
2023-04-12T19:18:44.154Z,81.49
2023-04-12T19:21:47.414Z,81.66
2023-04-12T19:24:50.889Z,81.86
2023-04-12T19:27:54.974Z,81.92
2023-04-12T19:30:58.764Z,82.13
2023-04-12T19:34:01.635Z,81.96
2023-04-12T19:37:04.795Z,82.04
2023-04-12T19:40:12.457Z,82.93
2023-04-12T19:43:18.734Z,83.06
2023-04-12T19:46:21.826Z,83.86
2023-04-12T19:49:24.953Z,84.19
2023-04-12T19:52:28.671Z,84.47
2023-04-12T19:55:31.480Z,84.69
2023-04-12T19:58:35.650Z,85.16
2023-04-12T20:01:47.978Z,85.59
2023-04-12T20:04:51.319Z,85.58
2023-04-12T20:07:56.115Z,86.39
2023-04-12T20:10:58.943Z,92.06
2023-04-12T20:14:02.953Z,92.44
2023-04-12T20:17:06.318Z,93.59
2023-04-12T20:20:10.955Z,95.61
2023-04-12T20:23:14.226Z,97.41
2023-04-12T20:26:17.083Z,97.19
2023-04-12T20:29:22.133Z,96.23
2023-04-12T20:32:25.320Z,96.09
2023-04-12T20:35:28.913Z,96.97
2023-04-12T20:38:32.156Z,97.82
2023-04-12T20:41:38.153Z,98.06
2023-04-12T20:44:42.268Z,97.45
2023-04-12T20:47:44.986Z,98.79
2023-04-12T20:50:48.070Z,98.89
2023-04-12T20:53:51.747Z,99.38
2023-04-12T20:56:54.722Z,99.20
2023-04-12T20:59:59.439Z,99.34
2023-04-12T21:03:03.250Z,99.44
2023-04-12T21:06:06.822Z,99.55
2023-04-12T21:09:10.094Z,99.65
2023-04-12T21:12:12.785Z,99.21
2023-04-12T21:15:21.670Z,98.35
2023-04-12T21:18:24.451Z,98.00
2023-04-12T21:21:27.416Z,97.85
2023-04-12T21:24:30.961Z,97.48
2023-04-12T21:27:33.817Z,97.17
2023-04-12T21:30:37.949Z,97.01
2023-04-12T21:33:40.654Z,97.61
2023-04-12T21:36:44.153Z,97.62
2023-04-12T21:39:47.483Z,97.51
2023-04-12T21:42:50.326Z,97.32
2023-04-12T21:45:54.545Z,97.19
2023-04-12T21:48:57.821Z,97.53
2023-04-12T21:52:00.750Z,97.77
2023-04-12T21:55:04.874Z,97.48
2023-04-12T21:58:08.088Z,97.49
2023-04-12T22:01:12.444Z,97.57
2023-04-12T22:04:15.597Z,97.59
2023-04-12T22:07:18.621Z,97.93
2023-04-12T22:10:21.825Z,97.59
2023-04-12T22:13:24.743Z,97.77
2023-04-12T22:16:28.922Z,97.99
2023-04-12T22:19:31.675Z,98.61
2023-04-12T22:22:34.671Z,97.74
2023-04-12T22:25:37.451Z,98.57
2023-04-12T22:28:41.415Z,99.05
2023-04-12T22:31:46.953Z,99.18
2023-04-12T22:35:01.196Z,99.32
2023-04-12T22:38:12.346Z,99.43
2023-04-12T22:41:16.547Z,99.75
2023-04-12T22:44:21.985Z,99.74
2023-04-12T22:47:28.041Z,98.94
2023-04-12T22:50:31.063Z,98.83
2023-04-12T22:53:34.359Z,98.71
2023-04-12T22:56:42.024Z,98.53
2023-04-12T22:59:44.702Z,98.21
2023-04-12T23:02:48.808Z,98.08
2023-04-12T23:05:52.338Z,98.37
2023-04-12T23:08:55.122Z,98.64
2023-04-12T23:11:57.807Z,99.20
2023-04-12T23:15:00.474Z,99.46
2023-04-12T23:18:05.285Z,98.87
2023-04-12T23:21:11.194Z,98.99
2023-04-12T23:24:15.593Z,99.39
2023-04-12T23:27:18.706Z,99.13
2023-04-12T23:30:22.517Z,99.17
2023-04-12T23:33:26.572Z,98.97
2023-04-12T23:36:29.280Z,98.64
2023-04-12T23:39:32.153Z,98.76
2023-04-12T23:42:37.139Z,99.10
2023-04-12T23:45:39.819Z,98.95
2023-04-12T23:48:43.958Z,98.41
2023-04-12T23:51:46.737Z,98.72
2023-04-12T23:54:49.422Z,98.19
2023-04-12T23:57:52.056Z,98.25
